createdAt,value
2018-05-01T00:00:25.331Z,0.00
2018-05-01T00:02:34.333Z,0.00
2018-05-01T00:03:36.334Z,0.00
2018-05-01T00:05:35.435Z,0.00
2018-05-01T00:06:35.346Z,0.00
2018-05-01T00:07:35.685Z,0.00
2018-05-01T00:08:35.700Z,0.00
2018-05-01T00:09:35.664Z,0.00
2018-05-01T00:10:36.219Z,0.00
2018-05-01T00:11:36.261Z,0.00
2018-05-01T00:12:36.241Z,0.00
2018-05-01T00:13:36.229Z,0.00
2018-05-01T00:14:35.705Z,0.00
2018-05-01T00:15:35.705Z,0.00
2018-05-01T00:16:35.714Z,0.00
2018-05-01T00:17:36.200Z,0.00
2018-05-01T00:18:35.842Z,0.00
2018-05-01T00:19:35.752Z,0.00
2018-05-01T00:20:35.516Z,0.00
2018-05-01T00:21:35.928Z,0.00
2018-05-01T00:22:36.283Z,0.00
2018-05-01T00:24:04.599Z,0.00
2018-05-01T00:25:30.640Z,0.00
2018-05-01T00:26:30.622Z,0.00
2018-05-01T00:28:53.587Z,0.00
2018-05-01T00:31:06.200Z,0.00
2018-05-01T00:32:06.232Z,0.00
2018-05-01T00:34:25.793Z,0.00
2018-05-01T00:35:17.105Z,0.00
2018-05-01T00:37:14.519Z,0.00
2018-05-01T00:38:12.528Z,0.00
2018-05-01T00:40:48.459Z,0.00
2018-05-01T00:41:26.204Z,0.00
2018-05-01T00:43:47.598Z,0.00
2018-05-01T00:44:27.693Z,0.00
2018-05-01T00:45:27.709Z,0.00
2018-05-01T00:46:47.636Z,0.00
2018-05-01T00:48:36.857Z,0.00
2018-05-01T00:49:36.825Z,0.00
2018-05-01T00:50:36.848Z,0.00
2018-05-01T00:51:37.624Z,0.00
2018-05-01T00:52:36.833Z,0.00
2018-05-01T00:53:39.634Z,0.00
2018-05-01T00:54:36.897Z,0.00
2018-05-01T00:55:39.645Z,0.00
2018-05-01T00:56:39.657Z,0.00
2018-05-01T00:57:39.565Z,0.00
2018-05-01T01:00:27.065Z,0.00
2018-05-01T01:05:39.145Z,0.00
2018-05-01T01:06:39.130Z,0.00
2018-05-01T01:07:39.966Z,0.00
2018-05-01T01:08:39.965Z,0.00
2018-05-01T01:09:39.147Z,0.00
2018-05-01T01:10:39.215Z,0.00
2018-05-01T01:11:39.121Z,0.00
2018-05-01T01:12:39.107Z,0.00
2018-05-01T01:13:39.108Z,0.00
2018-05-01T01:14:39.147Z,0.00
2018-05-01T01:15:39.152Z,0.00
2018-05-01T01:16:39.167Z,0.00
2018-05-01T01:17:39.102Z,0.00
2018-05-01T01:18:39.158Z,0.00
2018-05-01T01:19:39.104Z,0.00
2018-05-01T01:20:39.110Z,0.00
2018-05-01T01:21:39.096Z,0.00
2018-05-01T01:22:39.142Z,0.00
2018-05-01T01:23:39.216Z,0.00
2018-05-01T01:24:39.171Z,0.00
2018-05-01T01:25:39.241Z,0.00
2018-05-01T01:26:39.153Z,0.00
2018-05-01T01:27:39.157Z,0.00
2018-05-01T01:28:39.234Z,0.00
2018-05-01T01:29:39.974Z,0.00
2018-05-01T01:30:39.152Z,0.00
2018-05-01T01:31:39.085Z,0.00
2018-05-01T01:32:39.121Z,0.00
2018-05-01T01:33:39.088Z,0.00
2018-05-01T01:34:39.140Z,0.00
2018-05-01T01:35:39.214Z,0.00
2018-05-01T01:36:39.100Z,0.00
2018-05-01T01:37:39.088Z,0.00
2018-05-01T01:38:39.119Z,0.00
2018-05-01T01:39:40.167Z,0.00
2018-05-01T01:40:39.082Z,0.00
2018-05-01T01:41:41.347Z,0.00
2018-05-01T01:42:40.065Z,0.00
2018-05-01T01:43:40.073Z,0.00
2018-05-01T01:44:39.184Z,0.00
2018-05-01T01:45:39.184Z,0.00
2018-05-01T01:48:17.283Z,0.00
2018-05-01T01:49:15.458Z,0.00
2018-05-01T01:50:15.456Z,0.00
2018-05-01T01:51:15.461Z,0.00
2018-05-01T01:52:15.457Z,0.00
2018-05-01T01:53:15.474Z,0.00
2018-05-01T01:54:15.464Z,0.00
2018-05-01T01:55:15.464Z,0.00
2018-05-01T01:56:15.447Z,0.00
2018-05-01T01:57:15.447Z,0.00
2018-05-01T01:59:47.293Z,0.00
2018-05-01T02:00:46.346Z,0.00
2018-05-01T02:01:46.357Z,0.00
2018-05-01T02:02:46.353Z,0.00
2018-05-01T02:03:47.309Z,0.00
2018-05-01T02:04:48.265Z,0.00
2018-05-01T02:05:46.441Z,0.00
2018-05-01T02:06:47.337Z,0.00
2018-05-01T02:07:46.371Z,0.00
2018-05-01T02:08:46.335Z,0.00
2018-05-01T02:09:47.242Z,0.00
2018-05-01T02:10:46.399Z,0.00
2018-05-01T02:11:46.329Z,0.00
2018-05-01T02:12:46.355Z,0.00
2018-05-01T02:13:47.298Z,0.00
2018-05-01T02:14:48.681Z,0.00
2018-05-01T02:15:46.361Z,0.00
2018-05-01T02:16:46.370Z,0.00
2018-05-01T02:17:46.376Z,0.00
2018-05-01T02:18:46.319Z,0.00
2018-05-01T02:19:46.358Z,0.00
2018-05-01T02:20:46.432Z,0.00
2018-05-01T02:21:47.184Z,0.00
2018-05-01T02:22:46.316Z,0.00
2018-05-01T02:23:46.361Z,0.00
2018-05-01T02:24:46.391Z,0.00
2018-05-01T02:25:46.303Z,0.00
2018-05-01T02:26:47.320Z,0.00
2018-05-01T02:27:46.435Z,0.00
2018-05-01T02:28:46.351Z,0.00
2018-05-01T02:29:46.347Z,0.00
2018-05-01T02:30:46.302Z,0.00
2018-05-01T02:31:46.297Z,0.00
2018-05-01T02:32:46.348Z,0.00
2018-05-01T02:33:47.202Z,0.00
2018-05-01T02:34:46.351Z,0.00
2018-05-01T02:35:46.288Z,0.00
2018-05-01T02:36:46.482Z,0.00
2018-05-01T02:37:46.498Z,0.00
2018-05-01T02:38:51.618Z,0.00
2018-05-01T02:39:48.185Z,0.00
2018-05-01T02:41:09.542Z,0.00
2018-05-01T02:41:46.566Z,0.00
2018-05-01T02:43:01.332Z,0.00
2018-05-01T02:43:46.312Z,0.00
2018-05-01T02:45:00.257Z,0.00
2018-05-01T02:46:42.721Z,0.00
2018-05-01T02:47:42.169Z,0.00
2018-05-01T02:49:37.599Z,0.00
2018-05-01T02:50:37.662Z,0.00
2018-05-01T02:52:44.558Z,0.00
2018-05-01T02:53:44.534Z,0.00
2018-05-01T02:55:43.456Z,0.00
2018-05-01T02:56:43.410Z,0.00
2018-05-01T02:59:14.493Z,0.00
2018-05-01T03:00:14.500Z,0.00
2018-05-01T03:02:31.974Z,0.00
2018-05-01T03:03:18.946Z,0.00
2018-05-01T03:04:18.922Z,0.00
2018-05-01T03:05:18.897Z,0.00
2018-05-01T03:06:18.894Z,0.00
2018-05-01T03:07:18.901Z,0.00
2018-05-01T03:08:18.919Z,0.00
2018-05-01T03:09:33.966Z,0.00
2018-05-01T03:11:38.888Z,0.00
2018-05-01T03:14:23.659Z,0.00
2018-05-01T03:16:52.738Z,0.00
2018-05-01T03:23:47.112Z,0.00
2018-05-01T03:26:57.911Z,4.00
2018-05-01T03:27:35.507Z,4.00
2018-05-01T03:29:52.037Z,0.00
2018-05-01T03:30:57.557Z,4.00
2018-05-01T03:32:38.313Z,4.00
2018-05-01T03:33:37.783Z,4.00
2018-05-01T03:35:32.321Z,4.00
2018-05-01T03:36:32.314Z,8.00
2018-05-01T03:38:32.279Z,8.00
2018-05-01T03:39:32.211Z,8.00
2018-05-01T03:40:32.684Z,8.00
2018-05-01T03:41:32.698Z,12.00
2018-05-01T03:42:32.735Z,12.00
2018-05-01T03:43:33.746Z,12.00
2018-05-01T03:45:59.755Z,16.00
2018-05-01T03:46:59.721Z,20.00
2018-05-01T03:47:59.738Z,20.00
2018-05-01T03:48:59.713Z,24.00
2018-05-01T03:49:59.712Z,28.00
2018-05-01T03:50:59.709Z,28.00
2018-05-01T03:51:59.704Z,32.00
2018-05-01T03:53:08.369Z,32.00
2018-05-01T03:54:56.675Z,40.00
2018-05-01T03:56:10.869Z,44.00
2018-05-01T03:57:50.987Z,48.00
2018-05-01T03:58:50.986Z,48.00
2018-05-01T04:00:56.495Z,52.00
2018-05-01T04:03:28.120Z,52.00
2018-05-01T04:04:28.018Z,48.00
2018-05-01T04:05:37.853Z,60.00
2018-05-01T04:06:28.038Z,60.00
2018-05-01T04:07:46.621Z,72.00
2018-05-01T04:09:37.457Z,92.00
2018-05-01T04:14:01.367Z,144.00
2018-05-01T04:14:48.879Z,148.00
2018-05-01T04:15:48.855Z,144.00
2018-05-01T04:16:48.848Z,152.00
2018-05-01T04:17:48.845Z,164.00
2018-05-01T04:18:48.889Z,172.00
2018-05-01T04:19:48.900Z,176.00
2018-05-01T04:20:48.903Z,188.00
2018-05-01T04:21:48.835Z,208.00
2018-05-01T04:22:48.836Z,212.00
2018-05-01T04:23:48.832Z,224.00
2018-05-01T04:24:48.836Z,236.00
2018-05-01T04:25:48.852Z,252.00
2018-05-01T04:26:48.823Z,256.00
2018-05-01T04:27:48.821Z,296.00
2018-05-01T04:28:48.824Z,292.00
2018-05-01T04:29:48.818Z,272.00
2018-05-01T04:30:48.815Z,268.00
2018-05-01T04:31:48.817Z,284.00
2018-05-01T04:32:48.812Z,300.00
2018-05-01T04:33:48.807Z,328.00
2018-05-01T04:34:48.806Z,352.00
2018-05-01T04:35:48.806Z,360.00
2018-05-01T04:36:48.802Z,372.00
2018-05-01T04:37:48.799Z,352.00
2018-05-01T04:38:48.796Z,348.00
2018-05-01T04:39:48.794Z,364.00
2018-05-01T04:40:48.792Z,388.00
2018-05-01T04:41:48.790Z,384.00
2018-05-01T04:42:49.300Z,400.00
2018-05-01T04:43:49.306Z,456.00
2018-05-01T04:44:48.802Z,404.00
2018-05-01T04:45:48.781Z,448.00
2018-05-01T04:46:48.779Z,516.00
2018-05-01T04:47:48.778Z,464.00
2018-05-01T04:48:48.773Z,416.00
2018-05-01T04:49:48.772Z,424.00
2018-05-01T04:50:48.769Z,412.00
2018-05-01T04:51:48.798Z,448.00
2018-05-01T04:52:48.764Z,448.00
2018-05-01T04:53:48.761Z,508.00
2018-05-01T04:54:48.758Z,488.00
2018-05-01T04:55:48.764Z,448.00
2018-05-01T04:56:48.756Z,428.00
2018-05-01T04:57:48.756Z,452.00
2018-05-01T04:58:48.764Z,440.00
2018-05-01T04:59:49.305Z,500.00
2018-05-01T05:00:48.776Z,492.00
2018-05-01T05:01:48.756Z,504.00
2018-05-01T05:02:48.764Z,516.00
2018-05-01T05:03:48.739Z,568.00
2018-05-01T05:04:48.734Z,508.00
2018-05-01T05:05:48.737Z,524.00
2018-05-01T05:06:48.734Z,528.00
2018-05-01T05:07:48.727Z,520.00
2018-05-01T05:08:48.727Z,596.00
2018-05-01T05:09:48.768Z,536.00
2018-05-01T05:10:48.728Z,540.00
2018-05-01T05:11:48.721Z,620.00
2018-05-01T05:12:48.722Z,588.00
2018-05-01T05:13:48.717Z,560.00
2018-05-01T05:14:48.733Z,592.00
2018-05-01T05:15:48.727Z,584.00
2018-05-01T05:16:48.712Z,572.00
2018-05-01T05:17:48.704Z,572.00
2018-05-01T05:18:48.698Z,576.00
2018-05-01T05:19:48.721Z,588.00
2018-05-01T05:20:48.733Z,588.00
2018-05-01T05:21:48.756Z,616.00
2018-05-01T05:22:48.689Z,604.00
2018-05-01T05:23:48.694Z,672.00
2018-05-01T05:24:48.706Z,612.00
2018-05-01T05:25:48.679Z,644.00
2018-05-01T05:26:48.679Z,656.00
2018-05-01T05:27:48.679Z,624.00
2018-05-01T05:28:48.669Z,668.00
2018-05-01T05:29:48.699Z,684.00
2018-05-01T05:30:48.668Z,660.00
2018-05-01T05:31:48.677Z,680.00
2018-05-01T05:32:48.666Z,660.00
2018-05-01T05:33:49.309Z,648.00
2018-05-01T05:34:48.658Z,684.00
2018-05-01T05:35:48.646Z,672.00
2018-05-01T05:36:48.643Z,680.00
2018-05-01T05:37:48.651Z,676.00
2018-05-01T05:38:48.636Z,684.00
2018-05-01T05:39:48.639Z,704.00
2018-05-01T05:40:48.635Z,712.00
2018-05-01T05:41:48.654Z,744.00
2018-05-01T05:42:48.694Z,740.00
2018-05-01T05:43:48.658Z,756.00
2018-05-01T05:44:48.631Z,784.00
2018-05-01T05:45:48.648Z,800.00
2018-05-01T05:46:48.642Z,832.00
2018-05-01T05:47:48.683Z,880.00
2018-05-01T05:48:48.660Z,844.00
2018-05-01T05:49:49.310Z,984.00
2018-05-01T05:50:48.618Z,1108.00
2018-05-01T05:51:48.600Z,1676.00
2018-05-01T05:52:49.315Z,2368.00
2018-05-01T05:53:48.613Z,2648.00
2018-05-01T05:54:49.305Z,2692.00
2018-05-01T05:55:48.619Z,2732.00
2018-05-01T05:56:48.587Z,2744.00
2018-05-01T05:57:48.595Z,2696.00
2018-05-01T05:58:48.622Z,2600.00
2018-05-01T05:59:48.577Z,2744.00
2018-05-01T06:00:48.612Z,2744.00
2018-05-01T06:01:48.585Z,2836.00
2018-05-01T06:02:48.572Z,2916.00
2018-05-01T06:03:48.567Z,2896.00
2018-05-01T06:04:48.573Z,2968.00
2018-05-01T06:05:48.567Z,3052.00
2018-05-01T06:06:48.560Z,3108.00
2018-05-01T06:07:48.563Z,3072.00
2018-05-01T06:08:48.557Z,3104.00
2018-05-01T06:09:49.319Z,3232.00
2018-05-01T06:10:48.558Z,3228.00
2018-05-01T06:11:48.549Z,3260.00
2018-05-01T06:12:48.549Z,3136.00
2018-05-01T06:13:48.582Z,3340.00
2018-05-01T06:14:48.550Z,3340.00
2018-05-01T06:15:48.547Z,3376.00
2018-05-01T06:16:48.549Z,3408.00
2018-05-01T06:17:48.547Z,3404.00
2018-05-01T06:18:48.548Z,3404.00
2018-05-01T06:19:48.541Z,3476.00
2018-05-01T06:20:48.540Z,3516.00
2018-05-01T06:21:48.569Z,3496.00
2018-05-01T06:22:48.538Z,3504.00
2018-05-01T06:23:48.540Z,3532.00
2018-05-01T06:24:48.538Z,3552.00
2018-05-01T06:25:48.538Z,3588.00
2018-05-01T06:26:48.538Z,3636.00
2018-05-01T06:27:49.310Z,3732.00
2018-05-01T06:28:48.536Z,3752.00
2018-05-01T06:29:48.556Z,3896.00
2018-05-01T06:30:48.541Z,3832.00
2018-05-01T06:31:48.534Z,3884.00
2018-05-01T06:32:48.569Z,3944.00
2018-05-01T06:33:49.312Z,4040.00
2018-05-01T06:34:48.535Z,4128.00
2018-05-01T06:35:48.561Z,4264.00
2018-05-01T06:36:48.576Z,4440.00
2018-05-01T06:37:48.534Z,4576.00
2018-05-01T06:38:48.541Z,4684.00
2018-05-01T06:39:48.535Z,4920.00
2018-05-01T06:40:48.535Z,5084.00
2018-05-01T06:41:48.536Z,5232.00
2018-05-01T06:42:48.536Z,5340.00
2018-05-01T06:43:48.609Z,5508.00
2018-05-01T06:44:48.538Z,5524.00
2018-05-01T06:45:48.541Z,5580.00
2018-05-01T06:46:48.540Z,5596.00
2018-05-01T06:47:48.537Z,5628.00
2018-05-01T06:48:48.544Z,5608.00
2018-05-01T06:49:48.544Z,5632.00
2018-05-01T06:50:48.626Z,5612.00
2018-05-01T06:51:48.558Z,5628.00
2018-05-01T06:52:48.551Z,5656.00
2018-05-01T06:53:48.555Z,5784.00
2018-05-01T06:54:48.553Z,5864.00
2018-05-01T06:55:48.554Z,3740.00
2018-05-01T06:56:49.312Z,5940.00
2018-05-01T06:57:48.572Z,5952.00
2018-05-01T06:58:48.560Z,6104.00
2018-05-01T06:59:48.565Z,6048.00
2018-05-01T07:00:48.565Z,4892.00
2018-05-01T07:01:49.313Z,6132.00
2018-05-01T07:02:48.569Z,6384.00
2018-05-01T07:03:48.568Z,6536.00
2018-05-01T07:04:48.577Z,6500.00
2018-05-01T07:05:48.598Z,6368.00
2018-05-01T07:06:48.574Z,6392.00
2018-05-01T07:07:48.589Z,6520.00
2018-05-01T07:08:48.608Z,6448.00
2018-05-01T07:09:48.593Z,6492.00
2018-05-01T07:10:48.598Z,6416.00
2018-05-01T07:11:48.588Z,6496.00
2018-05-01T07:12:48.590Z,6584.00
2018-05-01T07:13:48.615Z,6640.00
2018-05-01T07:14:48.593Z,6648.00
2018-05-01T07:15:48.619Z,6804.00
2018-05-01T07:16:48.601Z,6880.00
2018-05-01T07:17:48.605Z,6828.00
2018-05-01T07:18:48.608Z,6904.00
2018-05-01T07:19:48.610Z,6908.00
2018-05-01T07:20:48.612Z,6996.00
2018-05-01T07:21:48.615Z,7004.00
2018-05-01T07:22:48.616Z,7104.00
2018-05-01T07:23:48.644Z,7128.00
2018-05-01T07:24:48.627Z,7288.00
2018-05-01T07:25:48.631Z,7380.00
2018-05-01T07:26:48.640Z,7404.00
2018-05-01T07:27:48.637Z,7448.00
2018-05-01T07:28:48.640Z,7516.00
2018-05-01T07:29:48.647Z,7560.00
2018-05-01T07:30:48.692Z,7552.00
2018-05-01T07:31:48.653Z,7692.00
2018-05-01T07:32:48.686Z,7716.00
2018-05-01T07:33:48.661Z,7808.00
2018-05-01T07:34:48.668Z,7832.00
2018-05-01T07:35:48.669Z,7852.00
2018-05-01T07:36:48.673Z,7864.00
2018-05-01T07:37:49.320Z,8048.00
2018-05-01T07:38:48.688Z,8052.00
2018-05-01T07:39:48.691Z,8084.00
2018-05-01T07:40:48.687Z,8148.00
2018-05-01T07:41:48.725Z,8336.00
2018-05-01T07:42:48.764Z,8444.00
2018-05-01T07:43:49.521Z,8480.00
2018-05-01T07:44:48.785Z,8612.00
2018-05-01T07:45:48.712Z,8788.00
2018-05-01T07:46:57.904Z,8628.00
2018-05-01T07:48:43.867Z,9224.00
2018-05-01T07:49:43.140Z,5868.00
2018-05-01T07:50:43.176Z,1564.00
2018-05-01T07:51:43.685Z,2964.00
2018-05-01T07:52:43.148Z,7312.00
2018-05-01T07:53:43.202Z,9468.00
2018-05-01T07:54:43.179Z,9504.00
2018-05-01T07:55:43.123Z,9700.00
2018-05-01T07:56:43.162Z,9888.00
2018-05-01T07:57:43.133Z,9996.00
2018-05-01T07:58:43.168Z,10352.00
2018-05-01T07:59:43.147Z,2460.00
2018-05-01T08:00:43.161Z,10064.00
2018-05-01T08:01:43.178Z,10028.00
2018-05-01T08:02:43.201Z,9952.00
2018-05-01T08:03:43.210Z,10060.00
2018-05-01T08:04:43.168Z,10228.00
2018-05-01T08:05:43.174Z,10208.00
2018-05-01T08:06:43.179Z,10092.00
2018-05-01T08:07:43.184Z,9804.00
2018-05-01T08:08:43.190Z,9436.00
2018-05-01T08:09:43.193Z,8896.00
2018-05-01T08:10:43.199Z,2384.00
2018-05-01T08:11:43.203Z,6924.00
2018-05-01T08:12:43.210Z,5804.00
2018-05-01T08:13:43.218Z,4992.00
2018-05-01T08:14:43.273Z,3576.00
2018-05-01T08:15:43.226Z,2908.00
2018-05-01T08:16:43.236Z,2912.00
2018-05-01T08:17:43.238Z,2800.00
2018-05-01T08:18:43.264Z,3156.00
2018-05-01T08:19:43.246Z,3424.00
2018-05-01T08:20:43.251Z,3196.00
2018-05-01T08:21:43.256Z,2916.00
2018-05-01T08:22:43.262Z,1744.00
2018-05-01T08:23:43.288Z,3012.00
2018-05-01T08:24:43.268Z,3184.00
2018-05-01T08:25:43.272Z,3644.00
2018-05-01T08:26:43.277Z,2176.00
2018-05-01T08:27:43.286Z,3444.00
2018-05-01T08:28:43.285Z,3264.00
2018-05-01T08:29:43.288Z,3440.00
2018-05-01T08:30:43.292Z,2240.00
2018-05-01T08:31:43.311Z,3556.00
2018-05-01T08:32:43.308Z,3240.00
2018-05-01T08:33:43.327Z,3276.00
2018-05-01T08:34:43.304Z,3232.00
2018-05-01T08:35:44.164Z,3432.00
2018-05-01T08:36:43.311Z,3392.00
2018-05-01T08:37:43.376Z,3568.00
2018-05-01T08:38:43.354Z,1868.00
2018-05-01T08:39:43.339Z,3556.00
2018-05-01T08:40:43.323Z,3400.00
2018-05-01T08:41:43.323Z,3796.00
2018-05-01T08:42:43.327Z,2020.00
2018-05-01T08:43:43.333Z,3096.00
2018-05-01T08:44:43.330Z,3484.00
2018-05-01T08:45:43.361Z,3596.00
2018-05-01T08:46:43.355Z,3576.00
2018-05-01T08:47:43.338Z,3624.00
2018-05-01T08:48:43.340Z,3576.00
2018-05-01T08:49:43.361Z,2880.00
2018-05-01T08:50:43.370Z,2904.00
2018-05-01T08:51:43.361Z,3600.00
2018-05-01T08:52:43.345Z,2720.00
2018-05-01T08:53:43.349Z,3908.00
2018-05-01T08:54:43.352Z,3724.00
2018-05-01T08:55:43.353Z,3848.00
2018-05-01T08:56:43.373Z,4056.00
2018-05-01T08:57:43.359Z,4032.00
2018-05-01T08:58:43.359Z,3132.00
2018-05-01T08:59:43.375Z,3576.00
2018-05-01T09:00:43.372Z,2404.00
2018-05-01T09:01:43.363Z,3136.00
2018-05-01T09:02:43.365Z,3632.00
2018-05-01T09:03:43.366Z,2708.00
2018-05-01T09:04:43.427Z,4572.00
2018-05-01T09:05:43.372Z,3300.00
2018-05-01T09:06:43.374Z,3144.00
2018-05-01T09:07:43.383Z,4048.00
2018-05-01T09:08:43.377Z,4484.00
2018-05-01T09:09:43.380Z,2648.00
2018-05-01T09:10:43.379Z,3156.00
2018-05-01T09:11:43.380Z,4240.00
2018-05-01T09:12:43.381Z,4496.00
2018-05-01T09:13:43.384Z,4292.00
2018-05-01T09:14:43.388Z,4936.00
2018-05-01T09:15:43.387Z,5340.00
2018-05-01T09:16:43.388Z,5156.00
2018-05-01T09:17:43.484Z,4984.00
2018-05-01T09:18:43.391Z,4576.00
2018-05-01T09:19:43.509Z,4340.00
2018-05-01T09:20:43.575Z,4440.00
2018-05-01T09:21:43.395Z,4464.00
2018-05-01T09:22:43.396Z,4280.00
2018-05-01T09:23:43.398Z,4284.00
2018-05-01T09:24:43.399Z,3892.00
2018-05-01T09:25:43.403Z,3772.00
2018-05-01T09:26:44.112Z,3488.00
2018-05-01T09:27:43.404Z,3524.00
2018-05-01T09:28:43.405Z,3932.00
2018-05-01T09:29:43.407Z,4588.00
2018-05-01T09:30:43.410Z,5136.00
2018-05-01T09:31:43.410Z,4648.00
2018-05-01T09:32:43.412Z,3808.00
2018-05-01T09:33:43.417Z,3556.00
2018-05-01T09:34:43.418Z,4012.00
2018-05-01T09:35:43.428Z,3708.00
2018-05-01T09:36:43.422Z,2996.00
2018-05-01T09:37:43.425Z,3092.00
2018-05-01T09:38:43.428Z,3676.00
2018-05-01T09:39:43.429Z,3784.00
2018-05-01T09:40:43.429Z,3480.00
2018-05-01T09:41:43.443Z,2812.00
2018-05-01T09:42:43.460Z,2900.00
2018-05-01T09:43:43.436Z,2736.00
2018-05-01T09:44:43.469Z,3232.00
2018-05-01T09:45:43.439Z,2952.00
2018-05-01T09:46:43.444Z,3028.00
2018-05-01T09:47:43.441Z,3280.00
2018-05-01T09:48:43.444Z,3156.00
2018-05-01T09:49:43.448Z,3812.00
2018-05-01T09:50:43.449Z,3516.00
2018-05-01T09:51:43.448Z,3588.00
2018-05-01T09:52:43.451Z,3048.00
2018-05-01T09:53:43.450Z,2736.00
2018-05-01T09:54:43.453Z,2744.00
2018-05-01T09:55:43.489Z,2712.00
2018-05-01T09:56:43.587Z,2700.00
2018-05-01T09:57:43.461Z,2352.00
2018-05-01T09:58:43.457Z,2436.00
2018-05-01T09:59:43.460Z,2840.00
2018-05-01T10:00:43.457Z,2888.00
2018-05-01T10:01:43.542Z,2460.00
2018-05-01T10:02:43.462Z,2336.00
2018-05-01T10:03:43.460Z,2916.00
2018-05-01T10:04:43.470Z,2508.00
2018-05-01T10:05:43.462Z,2908.00
2018-05-01T10:06:44.119Z,4116.00
2018-05-01T10:07:44.119Z,2432.00
2018-05-01T10:08:43.461Z,2544.00
2018-05-01T10:09:43.465Z,2500.00
2018-05-01T10:10:43.465Z,2776.00
2018-05-01T10:11:43.484Z,2920.00
2018-05-01T10:12:43.463Z,2852.00
2018-05-01T10:13:43.473Z,2924.00
2018-05-01T10:14:43.468Z,3588.00
2018-05-01T10:15:43.469Z,3096.00
2018-05-01T10:16:43.492Z,3176.00
2018-05-01T10:17:43.473Z,3028.00
2018-05-01T10:18:43.513Z,3024.00
2018-05-01T10:19:43.477Z,2580.00
2018-05-01T10:20:43.474Z,2092.00
2018-05-01T10:21:43.472Z,1956.00
2018-05-01T10:22:43.487Z,1964.00
2018-05-01T10:23:43.484Z,1988.00
2018-05-01T10:24:43.521Z,2084.00
2018-05-01T10:25:43.498Z,2144.00
2018-05-01T10:26:43.479Z,2308.00
2018-05-01T10:27:43.489Z,2416.00
2018-05-01T10:28:44.688Z,2288.00
2018-05-01T10:29:43.477Z,2272.00
2018-05-01T10:30:43.476Z,2268.00
2018-05-01T10:31:43.481Z,2256.00
2018-05-01T10:32:43.521Z,2188.00
2018-05-01T10:33:43.479Z,2016.00
2018-05-01T10:34:43.512Z,1892.00
2018-05-01T10:35:43.535Z,1856.00
2018-05-01T10:36:43.502Z,1744.00
2018-05-01T10:37:43.537Z,1700.00
2018-05-01T10:38:43.566Z,1736.00
2018-05-01T10:39:43.520Z,1996.00
2018-05-01T10:40:43.480Z,1972.00
2018-05-01T10:41:43.493Z,1800.00
2018-05-01T10:42:50.666Z,1940.00
2018-05-01T10:43:49.127Z,1916.00
2018-05-01T10:44:43.504Z,2140.00
2018-05-01T10:45:43.514Z,1876.00
2018-05-01T10:46:43.502Z,1944.00
2018-05-01T10:47:44.127Z,1812.00
2018-05-01T10:48:52.151Z,1896.00
2018-05-01T10:50:41.409Z,2380.00
2018-05-01T10:51:37.857Z,2492.00
2018-05-01T10:54:36.268Z,2800.00
2018-05-01T10:55:36.247Z,2644.00
2018-05-01T10:56:37.012Z,2392.00
2018-05-01T10:57:36.205Z,2316.00
2018-05-01T10:58:36.184Z,2732.00
2018-05-01T10:59:36.237Z,3032.00
2018-05-01T11:00:36.342Z,3536.00
2018-05-01T11:01:36.185Z,3580.00
2018-05-01T11:02:36.189Z,4388.00
2018-05-01T11:03:36.187Z,3988.00
2018-05-01T11:04:36.208Z,4580.00
2018-05-01T11:05:36.207Z,3172.00
2018-05-01T11:06:36.210Z,2840.00
2018-05-01T11:07:36.189Z,3244.00
2018-05-01T11:08:36.206Z,2636.00
2018-05-01T11:09:36.192Z,2504.00
2018-05-01T11:10:36.180Z,2752.00
2018-05-01T11:11:36.956Z,2396.00
2018-05-01T11:12:36.196Z,2404.00
2018-05-01T11:13:36.195Z,2408.00
2018-05-01T11:14:36.180Z,2600.00
2018-05-01T11:15:37.072Z,2440.00
2018-05-01T11:16:36.302Z,2684.00
2018-05-01T11:17:36.236Z,2908.00
2018-05-01T11:18:36.187Z,2180.00
2018-05-01T11:19:36.182Z,1856.00
2018-05-01T11:20:36.610Z,1804.00
2018-05-01T11:21:36.175Z,1916.00
2018-05-01T11:22:36.446Z,1948.00
2018-05-01T11:23:36.174Z,1964.00
2018-05-01T11:24:36.237Z,1864.00
2018-05-01T11:25:36.174Z,1744.00
2018-05-01T11:26:37.012Z,1804.00
2018-05-01T11:27:36.183Z,1840.00
2018-05-01T11:28:36.205Z,1844.00
2018-05-01T11:29:36.172Z,1932.00
2018-05-01T11:30:36.175Z,2088.00
2018-05-01T11:31:36.168Z,2196.00
2018-05-01T11:32:36.173Z,2636.00
2018-05-01T11:33:36.213Z,2624.00
2018-05-01T11:34:36.167Z,2852.00
2018-05-01T11:35:36.249Z,2468.00
2018-05-01T11:36:36.195Z,2284.00
2018-05-01T11:37:36.175Z,2456.00
2018-05-01T11:38:36.184Z,2388.00
2018-05-01T11:39:36.183Z,2236.00
2018-05-01T11:40:36.172Z,2236.00
2018-05-01T11:41:36.163Z,2424.00
2018-05-01T11:42:36.171Z,2456.00
2018-05-01T11:43:36.165Z,2588.00
2018-05-01T11:44:36.161Z,2568.00
2018-05-01T11:45:37.309Z,2628.00
2018-05-01T11:46:36.177Z,2092.00
2018-05-01T11:47:36.185Z,2024.00
2018-05-01T11:48:36.162Z,2120.00
2018-05-01T11:49:36.362Z,2184.00
2018-05-01T11:50:36.170Z,2452.00
2018-05-01T11:51:36.159Z,2644.00
2018-05-01T11:52:36.164Z,2636.00
2018-05-01T11:53:36.159Z,3816.00
2018-05-01T11:54:36.164Z,2508.00
2018-05-01T11:55:36.271Z,2220.00
2018-05-01T11:56:36.162Z,2400.00
2018-05-01T11:57:36.967Z,2664.00
2018-05-01T11:58:36.159Z,2328.00
2018-05-01T11:59:36.173Z,2352.00
2018-05-01T12:00:36.157Z,1976.00
2018-05-01T12:01:37.136Z,2024.00
2018-05-01T12:02:36.233Z,2128.00
2018-05-01T12:03:36.492Z,2300.00
2018-05-01T12:04:36.244Z,2284.00
2018-05-01T12:05:36.165Z,2128.00
2018-05-01T12:06:36.973Z,2256.00
2018-05-01T12:07:37.373Z,2264.00
2018-05-01T12:08:36.551Z,2332.00
2018-05-01T12:09:36.280Z,2364.00
2018-05-01T12:10:36.298Z,2824.00
2018-05-01T12:11:36.172Z,3456.00
2018-05-01T12:12:36.168Z,2380.00
2018-05-01T12:13:36.172Z,2704.00
2018-05-01T12:16:44.589Z,2392.00
2018-05-01T12:17:44.632Z,2396.00
2018-05-01T12:18:44.552Z,2480.00
2018-05-01T12:19:44.558Z,2304.00
2018-05-01T12:20:44.549Z,2404.00
2018-05-01T12:21:44.608Z,2476.00
2018-05-01T12:22:44.551Z,3380.00
2018-05-01T12:23:44.615Z,2692.00
2018-05-01T12:24:44.553Z,3700.00
2018-05-01T12:25:44.552Z,2392.00
2018-05-01T12:26:44.552Z,3472.00
2018-05-01T12:27:44.612Z,2740.00
2018-05-01T12:28:44.551Z,2356.00
2018-05-01T12:29:44.549Z,3412.00
2018-05-01T12:30:44.553Z,2680.00
2018-05-01T12:31:44.554Z,1920.00
2018-05-01T12:32:44.641Z,2032.00
2018-05-01T12:33:44.555Z,3116.00
2018-05-01T12:34:45.574Z,2472.00
2018-05-01T12:35:45.109Z,2668.00
2018-05-01T12:36:44.617Z,2484.00
2018-05-01T12:37:44.560Z,2580.00
2018-05-01T12:38:44.559Z,3688.00
2018-05-01T12:39:44.559Z,3092.00
2018-05-01T12:40:44.565Z,3236.00
2018-05-01T12:41:44.562Z,2256.00
2018-05-01T12:42:44.563Z,3036.00
2018-05-01T12:43:45.079Z,2272.00
2018-05-01T12:44:44.561Z,2996.00
2018-05-01T12:45:44.566Z,2820.00
2018-05-01T12:46:44.567Z,2604.00
2018-05-01T12:47:44.576Z,1860.00
2018-05-01T12:48:44.584Z,1924.00
2018-05-01T12:49:44.571Z,2096.00
2018-05-01T12:50:44.572Z,2176.00
2018-05-01T12:51:44.570Z,2248.00
2018-05-01T12:52:44.575Z,1988.00
2018-05-01T12:53:44.593Z,2064.00
2018-05-01T12:54:44.576Z,2272.00
2018-05-01T12:55:44.577Z,2216.00
2018-05-01T12:56:44.578Z,2332.00
2018-05-01T12:57:44.621Z,2440.00
2018-05-01T12:58:44.608Z,2432.00
2018-05-01T12:59:44.650Z,2984.00
2018-05-01T13:00:44.585Z,2348.00
2018-05-01T13:01:44.583Z,2192.00
2018-05-01T13:02:44.587Z,2816.00
2018-05-01T13:03:44.585Z,2044.00
2018-05-01T13:04:45.283Z,2092.00
2018-05-01T13:05:44.587Z,2048.00
2018-05-01T13:06:44.588Z,2088.00
2018-05-01T13:07:44.604Z,2088.00
2018-05-01T13:08:44.692Z,2096.00
2018-05-01T13:09:44.591Z,3096.00
2018-05-01T13:10:44.594Z,2300.00
2018-05-01T13:11:44.592Z,2720.00
2018-05-01T13:12:44.593Z,3336.00
2018-05-01T13:13:44.597Z,3332.00
2018-05-01T13:14:44.596Z,3260.00
2018-05-01T13:15:44.596Z,2344.00
2018-05-01T13:16:44.597Z,2232.00
2018-05-01T13:17:44.599Z,2100.00
2018-05-01T13:18:44.607Z,1928.00
2018-05-01T13:19:44.599Z,1744.00
2018-05-01T13:20:44.635Z,2500.00
2018-05-01T13:21:45.580Z,1768.00
2018-05-01T13:22:44.607Z,1700.00
2018-05-01T13:23:44.729Z,1708.00
2018-05-01T13:24:44.609Z,2664.00
2018-05-01T13:25:46.262Z,1616.00